Time;durP1;ratioP1;P1;durP2;ratioP2;P2;SDS_P1;SDS_P2;PMS_P1;PMS_P2;Temp;Humidity;BMP_temperature;BMP_pressure;BME280_temperature;BME280_humidity;BME280_pressure;Samples;Min_cycle;Max_cycle;Signal;HPM_P1;HPM_P2
2021/08/12 00:00:53;;;;;;;;;;;15.00;99.90;;;;;;5098039;28;19928;-77
2021/08/12 00:03:21;;;;;;;;;;;15.00;99.90;;;;;;5097798;28;19928;-78
2021/08/12 00:05:49;;;;;;;;;;;15.00;99.90;;;;;;5098008;28;19920;-76
2021/08/12 00:08:17;;;;;;;;;;;15.00;99.90;;;;;;5097901;28;19920;-77
2021/08/12 00:10:50;;;;;;;;;;;15.00;99.90;;;;;;5097983;28;19926;-77
2021/08/12 00:13:18;;;;;;;;;;;14.90;99.90;;;;;;5098005;28;19920;-77
2021/08/12 00:15:47;;;;;;;;;;;14.90;99.90;;;;;;5097549;28;20298;-77
2021/08/12 00:18:15;;;;;;;;;;;14.80;99.90;;;;;;5097684;28;19920;-76
2021/08/12 00:20:46;;;;;;;;;;;14.80;99.90;;;;;;5097462;28;19920;-76
2021/08/12 00:23:14;;;;;;;;;;;14.80;99.90;;;;;;5097685;28;19920;-77
2021/08/12 00:25:43;;;;;;;;;;;14.70;99.90;;;;;;5097640;28;19927;-76
2021/08/12 00:28:11;;;;;;;;;;;14.80;99.90;;;;;;5097331;28;19920;-77
2021/08/12 00:30:39;;;;;;;;;;;14.80;99.90;;;;;;5097321;28;19928;-76
2021/08/12 00:33:08;;;;;;;;;;;14.80;99.90;;;;;;5097596;28;19947;-78
2021/08/12 00:35:36;;;;;;;;;;;14.90;99.90;;;;;;5097306;28;19934;-77
2021/08/12 00:38:04;;;;;;;;;;;14.90;99.90;;;;;;5097176;28;20339;-76
2021/08/12 00:40:32;;;;;;;;;;;14.90;99.90;;;;;;5097378;28;19924;-76
2021/08/12 00:43:00;;;;;;;;;;;14.90;99.90;;;;;;5097142;28;19927;-76
2021/08/12 00:45:28;;;;;;;;;;;14.90;99.90;;;;;;5097085;28;19920;-76
2021/08/12 00:47:55;;;;;;;;;;;14.90;99.90;;;;;;5096954;28;19927;-76
2021/08/12 00:50:25;;;;;;;;;;;14.90;99.90;;;;;;5097128;28;19920;-76
2021/08/12 00:52:53;;;;;;;;;;;14.90;99.90;;;;;;5096987;28;19949;-76
2021/08/12 00:55:21;;;;;;;;;;;14.90;99.90;;;;;;5097008;28;19920;-76
2021/08/12 00:57:49;;;;;;;;;;;14.90;99.90;;;;;;5096690;28;19920;-76
2021/08/12 01:00:17;;;;;;;;;;;14.90;99.90;;;;;;5096740;28;20351;-77
2021/08/12 01:02:45;;;;;;;;;;;14.90;99.90;;;;;;5096128;28;19930;-75
2021/08/12 01:05:13;;;;;;;;;;;14.90;99.90;;;;;;5096644;28;19931;-75
2021/08/12 01:07:49;;;;;;;;;;;14.90;99.90;;;;;;5096773;28;19943;-75
2021/08/12 01:10:19;;;;;;;;;;;14.90;99.90;;;;;;5096648;28;19920;-76
2021/08/12 01:12:50;;;;;;;;;;;14.90;99.90;;;;;;5096468;28;20348;-76
2021/08/12 01:15:20;;;;;;;;;;;14.90;99.90;;;;;;5096414;28;19920;-75
2021/08/12 01:17:49;;;;;;;;;;;14.90;99.90;;;;;;5096697;28;19920;-76
2021/08/12 01:20:27;;;;;;;;;;;14.90;99.90;;;;;;5096279;28;19920;-75
2021/08/12 01:22:57;;;;;;;;;;;14.90;99.90;;;;;;5096406;28;19927;-76
2021/08/12 01:25:26;;;;;;;;;;;14.90;99.90;;;;;;5096086;28;20336;-76
2021/08/12 01:27:55;;;;;;;;;;;14.90;99.90;;;;;;5096233;28;20352;-75
2021/08/12 01:30:24;;;;;;;;;;;14.90;99.90;;;;;;5096259;28;19927;-76
2021/08/12 01:32:55;;;;;;;;;;;14.90;99.90;;;;;;5096249;28;19935;-75
2021/08/12 01:35:25;;;;;;;;;;;14.90;99.90;;;;;;5096077;28;19931;-75
2021/08/12 01:37:54;;;;;;;;;;;14.90;99.90;;;;;;5095983;28;19931;-75
2021/08/12 01:40:22;;;;;;;;;;;14.90;99.90;;;;;;5095844;28;19924;-75
2021/08/12 01:42:50;;;;;;;;;;;14.90;99.90;;;;;;5095991;28;19919;-76
2021/08/12 01:45:18;;;;;;;;;;;14.90;99.90;;;;;;5096002;28;19920;-75
2021/08/12 01:47:45;;;;;;;;;;;14.90;99.90;;;;;;5095806;28;19920;-75
2021/08/12 01:50:16;;;;;;;;;;;14.90;99.90;;;;;;5096022;28;19920;-75
2021/08/12 01:52:46;;;;;;;;;;;14.80;99.90;;;;;;5095868;28;19953;-75
2021/08/12 01:55:14;;;;;;;;;;;14.90;99.90;;;;;;5095772;28;20294;-75
2021/08/12 01:57:42;;;;;;;;;;;14.80;99.90;;;;;;5095631;28;19934;-75
2021/08/12 02:00:10;;;;;;;;;;;14.80;99.90;;;;;;5095621;28;19920;-75
2021/08/12 02:02:37;;;;;;;;;;;14.80;99.90;;;;;;5095763;28;20252;-75
2021/08/12 02:05:09;;;;;;;;;;;14.70;99.90;;;;;;5095527;28;19920;-75
2021/08/12 02:07:38;;;;;;;;;;;14.70;99.90;;;;;;5095747;28;20280;-75
2021/08/12 02:10:08;;;;;;;;;;;14.70;99.90;;;;;;5095552;28;20340;-75
2021/08/12 02:12:36;;;;;;;;;;;14.60;99.90;;;;;;5095455;28;20267;-75
2021/08/12 02:15:05;;;;;;;;;;;14.60;99.90;;;;;;5094725;28;19920;-75
2021/08/12 02:17:33;;;;;;;;;;;14.50;99.90;;;;;;5095639;28;19943;-75
2021/08/12 02:20:01;;;;;;;;;;;14.50;99.90;;;;;;5095442;28;19923;-75
2021/08/12 02:22:30;;;;;;;;;;;14.40;99.90;;;;;;5095596;28;20014;-75
2021/08/12 02:25:02;;;;;;;;;;;14.30;99.90;;;;;;5095398;28;19920;-75
2021/08/12 02:27:31;;;;;;;;;;;14.30;99.90;;;;;;5095310;28;20402;-75
2021/08/12 02:29:59;;;;;;;;;;;14.20;99.90;;;;;;5095263;28;19920;-75
2021/08/12 02:32:29;;;;;;;;;;;14.20;99.90;;;;;;5095246;28;19920;-75
2021/08/12 02:34:57;;;;;;;;;;;14.10;99.90;;;;;;5095235;28;19926;-75
2021/08/12 02:37:25;;;;;;;;;;;14.00;99.90;;;;;;5095431;28;19920;-74
2021/08/12 02:39:53;;;;;;;;;;;14.00;99.90;;;;;;5095223;28;19931;-75
2021/08/12 02:42:21;;;;;;;;;;;13.90;99.90;;;;;;5095311;28;19920;-75
2021/08/12 02:44:49;;;;;;;;;;;13.90;99.90;;;;;;5095036;28;19931;-76
2021/08/12 02:47:17;;;;;;;;;;;13.90;99.90;;;;;;5095090;28;20348;-76
2021/08/12 02:49:46;;;;;;;;;;;13.80;99.90;;;;;;5095469;28;19930;-75
2021/08/12 02:52:16;;;;;;;;;;;13.80;99.90;;;;;;5095252;28;19920;-75
2021/08/12 02:54:45;;;;;;;;;;;13.70;99.90;;;;;;5095248;28;19920;-76
2021/08/12 02:57:13;;;;;;;;;;;13.70;99.90;;;;;;5094889;28;19973;-75
2021/08/12 02:59:42;;;;;;;;;;;13.70;99.90;;;;;;5094960;28;19920;-74
2021/08/12 03:02:11;;;;;;;;;;;13.60;99.90;;;;;;5094902;28;19930;-75
2021/08/12 03:04:40;;;;;;;;;;;13.50;99.90;;;;;;5095022;28;19920;-75
2021/08/12 03:07:08;;;;;;;;;;;13.50;99.90;;;;;;5094969;28;20340;-75
2021/08/12 03:09:37;;;;;;;;;;;13.50;99.90;;;;;;5095050;28;20259;-75
2021/08/12 03:12:05;;;;;;;;;;;13.40;99.90;;;;;;5094912;28;19930;-76
2021/08/12 03:14:35;;;;;;;;;;;13.50;99.90;;;;;;5095093;28;19920;-77
2021/08/12 03:17:03;;;;;;;;;;;13.40;99.90;;;;;;5094777;28;19935;-75
2021/08/12 03:19:32;;;;;;;;;;;13.40;99.90;;;;;;5094754;28;19920;-75
2021/08/12 03:22:00;;;;;;;;;;;13.40;99.90;;;;;;5095050;28;19920;-75
2021/08/12 03:24:29;;;;;;;;;;;13.40;99.90;;;;;;5094726;28;20256;-76
2021/08/12 03:26:57;;;;;;;;;;;13.40;99.90;;;;;;5098528;28;19934;-75
2021/08/12 03:29:25;;;;;;;;;;;13.30;99.90;;;;;;5098459;28;20409;-75
2021/08/12 03:31:53;;;;;;;;;;;13.30;99.90;;;;;;5098661;28;19924;-75
2021/08/12 03:34:21;;;;;;;;;;;13.30;99.90;;;;;;5098726;28;19921;-75
2021/08/12 03:36:49;;;;;;;;;;;13.40;99.90;;;;;;5098521;28;19931;-75
2021/08/12 03:39:17;;;;;;;;;;;13.30;99.90;;;;;;5098167;28;20374;-75
2021/08/12 03:41:45;;;;;;;;;;;13.30;99.90;;;;;;5098641;28;19920;-75
2021/08/12 03:44:13;;;;;;;;;;;13.30;99.90;;;;;;5098147;28;19950;-75
2021/08/12 03:46:41;;;;;;;;;;;13.20;99.90;;;;;;5098300;28;19930;-75
2021/08/12 03:49:09;;;;;;;;;;;13.20;99.90;;;;;;5098324;28;19920;-75
2021/08/12 03:51:36;;;;;;;;;;;13.20;99.90;;;;;;5098051;28;19920;-76
2021/08/12 03:54:06;;;;;;;;;;;13.20;99.90;;;;;;5098096;28;19927;-75
2021/08/12 03:56:34;;;;;;;;;;;13.10;99.90;;;;;;5098202;28;19920;-75
2021/08/12 03:59:02;;;;;;;;;;;13.10;99.90;;;;;;5097726;28;20332;-75
2021/08/12 04:01:30;;;;;;;;;;;13.10;99.90;;;;;;5097953;28;19927;-75
2021/08/12 04:03:58;;;;;;;;;;;13.10;99.90;;;;;;5097836;28;20415;-75
2021/08/12 04:06:27;;;;;;;;;;;13.00;99.90;;;;;;5097753;28;20027;-75
2021/08/12 04:08:54;;;;;;;;;;;13.00;99.90;;;;;;5097671;28;20340;-74
2021/08/12 04:11:27;;;;;;;;;;;13.00;99.90;;;;;;5097869;28;19928;-74
2021/08/12 04:13:54;;;;;;;;;;;12.90;99.90;;;;;;5097721;28;19920;-75
2021/08/12 04:16:23;;;;;;;;;;;12.90;99.90;;;;;;5097515;28;19920;-74
2021/08/12 04:18:51;;;;;;;;;;;12.90;99.90;;;;;;5097543;28;19977;-75
2021/08/12 04:21:19;;;;;;;;;;;12.90;99.90;;;;;;5097538;28;19920;-75
2021/08/12 04:23:47;;;;;;;;;;;12.80;99.90;;;;;;5097668;28;20278;-75
2021/08/12 04:26:15;;;;;;;;;;;12.80;99.90;;;;;;5097308;28;19931;-75
2021/08/12 04:28:44;;;;;;;;;;;12.80;99.90;;;;;;5097293;28;20282;-77
2021/08/12 04:31:12;;;;;;;;;;;12.80;99.90;;;;;;5097490;28;19920;-75
2021/08/12 04:33:40;;;;;;;;;;;12.70;99.90;;;;;;5097314;28;19920;-74
2021/08/12 04:36:08;;;;;;;;;;;12.70;99.90;;;;;;5097204;28;19934;-75
2021/08/12 04:38:36;;;;;;;;;;;12.70;99.90;;;;;;5096769;28;19920;-75
2021/08/12 04:41:04;;;;;;;;;;;12.70;99.90;;;;;;5097043;28;19926;-75
2021/08/12 04:43:32;;;;;;;;;;;12.60;99.90;;;;;;5097209;28;19919;-74
2021/08/12 04:46:02;;;;;;;;;;;12.70;99.90;;;;;;5097063;28;19919;-75
2021/08/12 04:48:30;;;;;;;;;;;12.60;99.90;;;;;;5097058;28;19920;-74
2021/08/12 04:50:58;;;;;;;;;;;12.60;99.90;;;;;;5097155;28;19919;-75
2021/08/12 04:53:27;;;;;;;;;;;12.60;99.90;;;;;;5097140;28;19938;-75
2021/08/12 04:55:54;;;;;;;;;;;12.60;99.90;;;;;;5097163;28;20221;-74
2021/08/12 04:58:22;;;;;;;;;;;12.60;99.90;;;;;;5096541;28;19920;-75
2021/08/12 05:00:51;;;;;;;;;;;12.50;99.90;;;;;;5096832;28;20237;-75
2021/08/12 05:03:20;;;;;;;;;;;12.50;99.90;;;;;;5097019;28;19920;-77
2021/08/12 05:05:48;;;;;;;;;;;12.50;99.90;;;;;;5096634;28;20336;-75
2021/08/12 05:08:18;;;;;;;;;;;12.50;99.90;;;;;;5096959;28;19931;-75
2021/08/12 05:10:47;;;;;;;;;;;12.50;99.90;;;;;;5096865;28;20314;-75
2021/08/12 05:13:15;;;;;;;;;;;12.50;99.90;;;;;;5096557;28;19920;-75
2021/08/12 05:15:43;;;;;;;;;;;12.50;99.90;;;;;;5096530;28;19954;-74
2021/08/12 05:18:13;;;;;;;;;;;12.50;99.90;;;;;;5096450;28;19920;-75
2021/08/12 05:20:42;;;;;;;;;;;12.50;99.90;;;;;;5096846;28;19931;-75
2021/08/12 05:23:11;;;;;;;;;;;12.50;99.90;;;;;;5096399;28;19920;-75
2021/08/12 05:25:44;;;;;;;;;;;12.60;99.90;;;;;;5096345;28;19985;-75
2021/08/12 05:28:12;;;;;;;;;;;12.60;99.90;;;;;;5096273;28;19920;-75
2021/08/12 05:30:40;;;;;;;;;;;12.60;99.90;;;;;;5096255;28;19930;-75
2021/08/12 05:33:08;;;;;;;;;;;12.60;99.90;;;;;;5096289;28;20264;-74
2021/08/12 05:35:36;;;;;;;;;;;12.70;99.90;;;;;;5096194;28;19920;-75
2021/08/12 05:38:06;;;;;;;;;;;12.70;99.90;;;;;;5096003;28;20267;-74
2021/08/12 05:40:34;;;;;;;;;;;12.70;99.90;;;;;;5095986;28;19924;-74
2021/08/12 05:43:02;;;;;;;;;;;12.80;99.90;;;;;;5095930;28;19998;-75
2021/08/12 05:45:30;;;;;;;;;;;12.80;99.90;;;;;;5096108;28;20370;-75
2021/08/12 05:47:58;;;;;;;;;;;12.70;99.90;;;;;;5095630;28;20331;-75
2021/08/12 05:50:26;;;;;;;;;;;12.70;99.90;;;;;;5096035;28;19931;-76
2021/08/12 05:52:57;;;;;;;;;;;12.80;99.90;;;;;;5095783;28;19930;-75
2021/08/12 05:55:30;;;;;;;;;;;12.90;99.90;;;;;;5096204;28;19920;-75
2021/08/12 05:57:58;;;;;;;;;;;12.90;99.90;;;;;;5095780;28;19920;-75
2021/08/12 06:00:26;;;;;;;;;;;12.90;99.90;;;;;;5095721;28;20332;-74
2021/08/12 06:02:55;;;;;;;;;;;12.90;99.90;;;;;;5095705;28;19920;-75
2021/08/12 06:05:23;;;;;;;;;;;13.00;99.90;;;;;;5095464;28;19919;-75
2021/08/12 06:07:51;;;;;;;;;;;13.00;99.90;;;;;;5095666;28;19920;-74
2021/08/12 06:10:21;;;;;;;;;;;13.10;99.90;;;;;;5095473;28;19920;-75
2021/08/12 06:12:50;;;;;;;;;;;13.20;99.90;;;;;;5095625;28;19920;-75
2021/08/12 06:15:18;;;;;;;;;;;13.30;99.90;;;;;;5095532;28;20336;-75
2021/08/12 06:17:46;;;;;;;;;;;13.30;99.90;;;;;;5095541;28;19930;-74
2021/08/12 06:20:17;;;;;;;;;;;13.30;99.90;;;;;;5095301;28;19924;-74
2021/08/12 06:22:46;;;;;;;;;;;13.40;99.90;;;;;;5095585;28;19927;-75
2021/08/12 06:25:14;;;;;;;;;;;13.50;99.90;;;;;;5095170;28;20358;-75
2021/08/12 06:27:42;;;;;;;;;;;13.60;99.90;;;;;;5095443;28;19920;-74
2021/08/12 06:30:12;;;;;;;;;;;13.70;99.90;;;;;;5095257;28;19928;-74
2021/08/12 06:32:40;;;;;;;;;;;13.80;99.90;;;;;;5095146;28;19920;-75
2021/08/12 06:35:11;;;;;;;;;;;13.80;99.90;;;;;;5095112;28;19920;-75
2021/08/12 06:37:43;;;;;;;;;;;13.80;99.90;;;;;;5095506;28;19920;-75
2021/08/12 06:40:13;;;;;;;;;;;13.80;99.90;;;;;;5095229;28;19928;-74
2021/08/12 06:42:41;;;;;;;;;;;13.80;99.90;;;;;;5095168;28;19920;-75
2021/08/12 06:45:09;;;;;;;;;;;13.80;99.90;;;;;;5094962;28;19930;-74
2021/08/12 06:47:38;;;;;;;;;;;13.90;99.90;;;;;;5095046;28;19926;-74
2021/08/12 06:50:07;;;;;;;;;;;13.90;99.90;;;;;;5095319;28;19919;-75
2021/08/12 06:52:35;;;;;;;;;;;14.00;99.90;;;;;;5095156;28;19919;-75
2021/08/12 06:55:03;;;;;;;;;;;14.10;99.90;;;;;;5095113;28;19920;-75
2021/08/12 06:57:30;;;;;;;;;;;14.20;99.90;;;;;;5094950;28;19920;-74
2021/08/12 06:59:57;;;;;;;;;;;14.30;99.90;;;;;;5095744;28;19920;-74
2021/08/12 07:02:25;;;;;;;;;;;14.30;99.90;;;;;;5099131;28;19926;-76
2021/08/12 07:04:54;;;;;;;;;;;14.40;99.90;;;;;;5099049;28;19937;-75
2021/08/12 07:07:23;;;;;;;;;;;14.50;99.90;;;;;;5098970;28;19920;-76
2021/08/12 07:09:51;;;;;;;;;;;14.40;99.90;;;;;;5099136;28;19920;-74
2021/08/12 07:12:19;;;;;;;;;;;14.40;99.90;;;;;;5098877;28;19927;-75
2021/08/12 07:14:46;;;;;;;;;;;14.40;99.90;;;;;;5098862;28;20340;-75
2021/08/12 07:17:25;;;;;;;;;;;14.40;99.90;;;;;;5098641;28;19927;-75
2021/08/12 07:19:56;;;;;;;;;;;14.40;99.90;;;;;;5098757;28;19920;-75
2021/08/12 07:22:24;;;;;;;;;;;14.60;99.90;;;;;;5098703;28;19931;-74
2021/08/12 07:24:52;;;;;;;6.35;1.73;;;15.50;99.90;;;;;;5097605;28;20423;-74
2021/08/12 07:27:20;;;;;;;61.50;3.50;;;16.60;99.90;;;;;;5098147;28;20044;-74
2021/08/12 07:29:51;;;;;;;;;;;17.40;99.90;;;;;;5098569;28;20043;-74
2021/08/12 07:32:18;;;;;;;;;;;18.80;99.90;;;;;;5098524;28;20374;-75
2021/08/12 07:34:45;;;;;;;;;;;20.50;99.90;;;;;;5098359;28;19924;-76
2021/08/12 07:37:28;;;;;;;;;;;22.10;99.90;;;;;;5098030;28;19924;-76
2021/08/12 07:39:59;;;;;;;4.82;1.15;;;23.80;99.90;;;;;;5096769;28;20453;-76
2021/08/12 07:42:27;;;;;;;3.15;1.17;;;25.30;99.90;;;;;;5097909;28;20529;-76
2021/08/12 07:45:00;;;;;;;4.53;1.60;;;26.20;99.90;;;;;;5097705;28;20048;-76
2021/08/12 07:47:30;;;;;;;4.53;1.00;;;26.50;99.90;;;;;;5097715;28;20044;-77
2021/08/12 07:49:59;;;;;;;3.38;0.90;;;27.30;99.90;;;;;;5097823;28;20079;-77
2021/08/12 07:52:29;;;;;;;4.97;1.25;;;27.90;99.90;;;;;;5097657;28;20055;-77
2021/08/12 07:54:56;;;;;;;5.78;0.60;;;27.90;99.90;;;;;;5097853;28;20043;-77
2021/08/12 07:57:23;;;;;;;5.80;1.17;;;28.30;99.70;;;;;;5097569;28;20055;-77
2021/08/12 07:59:51;;;;;;;4.00;0.90;;;28.10;99.30;;;;;;5097722;28;20048;-77
2021/08/12 08:02:18;;;;;;;4.03;1.00;;;26.90;95.40;;;;;;5097566;28;20058;-77
2021/08/12 08:04:47;;;;;;;4.03;0.90;;;25.30;99.90;;;;;;5096712;28;20052;-77
2021/08/12 08:07:14;;;;;;;2.17;0.60;;;23.80;99.90;;;;;;5097283;28;20051;-76
2021/08/12 08:09:42;;;;;;;4.50;0.93;;;22.40;99.90;;;;;;5097046;28;20058;-76
2021/08/12 08:12:09;;;;;;;6.82;1.58;;;21.40;99.90;;;;;;5095934;28;20054;-76
2021/08/12 08:14:37;;;;;;;11.15;2.80;;;20.70;99.90;;;;;;5097306;28;20044;-76
2021/08/12 08:17:05;;;;;;;6.20;1.38;;;20.20;99.90;;;;;;5097072;28;20048;-76
2021/08/12 08:19:33;;;;;;;5.35;1.23;;;19.80;99.90;;;;;;5097136;28;20052;-75
2021/08/12 08:22:01;;;;;;;4.57;1.23;;;19.40;99.90;;;;;;5097065;28;20052;-76
2021/08/12 08:24:28;;;;;;;7.18;1.30;;;19.20;99.90;;;;;;5097068;28;20054;-76
2021/08/12 08:26:58;;;;;;;;;;;18.90;99.90;;;;;;5097383;28;20052;-76
2021/08/12 08:29:25;;;;;;;;;;;18.60;99.90;;;;;;5097466;28;19924;-76
2021/08/12 08:31:52;;;;;;;;;;;18.40;99.90;;;;;;5097282;28;20268;-76
2021/08/12 08:34:19;;;;;;;;;;;18.10;99.90;;;;;;5097344;28;19931;-76
2021/08/12 08:36:46;;;;;;;;;;;17.90;99.90;;;;;;5097591;28;19924;-76
2021/08/12 08:39:12;;;;;;;;;;;17.80;99.90;;;;;;5097112;28;19924;-75
2021/08/12 08:41:39;;;;;;;;;;;17.60;99.90;;;;;;5097104;28;19931;-75
2021/08/12 08:44:08;;;;;;;8.60;2.63;;;17.50;99.90;;;;;;5095368;28;20403;-75
2021/08/12 08:46:35;;;;;;;;;;;17.40;99.90;;;;;;5097020;28;20048;-75
2021/08/12 08:49:02;;;;;;;;;;;17.40;99.90;;;;;;5096974;28;19930;-76
2021/08/12 08:51:28;;;;;;;;;;;17.20;99.90;;;;;;5096991;28;20351;-76
2021/08/12 08:53:56;;;;;;;14.35;2.80;;;17.20;99.90;;;;;;5096430;28;20280;-75
2021/08/12 08:56:23;;;;;;;4.00;1.30;;;17.10;99.90;;;;;;5096463;28;20048;-75
2021/08/12 08:58:50;;;;;;;3.97;1.10;;;17.00;99.90;;;;;;5095904;28;20052;-75
2021/08/12 09:01:20;;;;;;;2.83;0.90;;;17.00;99.90;;;;;;5095960;28;20052;-75
2021/08/12 09:03:49;;;;;;;6.57;1.50;;;17.00;99.90;;;;;;5096165;28;20452;-75
2021/08/12 09:06:17;;;;;;;7.07;1.33;;;17.00;99.90;;;;;;5096073;28;20051;-76
2021/08/12 09:08:47;;;;;;;10.52;2.25;;;17.00;99.90;;;;;;5096037;28;20079;-75
2021/08/12 09:11:15;;;;;;;4.10;1.20;;;17.00;99.90;;;;;;5096125;28;20387;-75
2021/08/12 09:13:43;;;;;;;3.08;1.20;;;17.10;99.90;;;;;;5096093;28;20054;-75
2021/08/12 09:16:33;;;;;;;6.95;1.60;;;17.10;99.90;;;;;;5095964;28;20058;-75
2021/08/12 09:19:15;;;;;;;6.43;1.30;;;17.20;99.90;;;;;;5095541;28;20055;-75
2021/08/12 09:21:42;;;;;;;5.97;1.95;;;17.20;99.90;;;;;;5094541;28;20134;-75
2021/08/12 09:24:09;;;;;;;3.78;1.05;;;17.20;99.90;;;;;;5095051;28;20059;-75
2021/08/12 09:26:38;;;;;;;7.20;1.70;;;17.20;99.90;;;;;;5095653;28;20044;-75
2021/08/12 09:29:06;;;;;;;6.45;1.40;;;17.20;99.90;;;;;;5095471;28;20455;-75
2021/08/12 09:31:34;;;;;;;4.03;1.30;;;17.20;99.90;;;;;;5095641;28;20059;-75
2021/08/12 09:34:01;;;;;;;5.32;1.40;;;17.30;99.90;;;;;;5095802;28;20052;-75
2021/08/12 09:36:30;;;;;;;6.18;1.65;;;17.40;99.90;;;;;;5095802;28;20356;-76
2021/08/12 09:39:11;;;;;;;7.35;2.35;;;17.50;99.90;;;;;;5095571;28;20048;-75
2021/08/12 09:41:42;;;;;;;3.83;1.65;;;17.50;99.90;;;;;;5094728;28;20055;-76
2021/08/12 09:44:23;;;;;;;;;;;17.50;99.90;;;;;;5096069;28;20048;-76
2021/08/12 09:46:56;;;;;;;;;;;17.60;99.90;;;;;;5095614;28;19924;-76
2021/08/12 09:49:23;;;;;;;;;;;17.60;99.90;;;;;;5095812;28;19920;-76
2021/08/12 09:51:50;;;;;;;;;;;17.60;99.90;;;;;;5095719;28;19924;-76
2021/08/12 09:54:17;;;;;;;;;;;17.70;99.90;;;;;;5095970;28;19931;-76
2021/08/12 09:56:43;;;;;;;;;;;17.70;99.90;;;;;;5095809;28;19920;-76
2021/08/12 09:59:10;;;;;;;;;;;17.70;99.90;;;;;;5095645;28;19920;-76
2021/08/12 10:01:37;;;;;;;;;;;17.80;99.90;;;;;;5095771;28;20244;-76
2021/08/12 10:04:24;;;;;;;;;;;17.80;99.90;;;;;;5094995;28;20294;-76
2021/08/12 10:06:52;;;;;;;;;;;17.80;99.90;;;;;;5095706;28;19928;-76
2021/08/12 10:09:19;;;;;;;;;;;17.80;99.90;;;;;;5095519;28;19924;-75
2021/08/12 10:11:45;;;;;;;;;;;17.80;99.90;;;;;;5095726;28;19927;-76
2021/08/12 10:14:12;;;;;;;;;;;17.80;99.90;;;;;;5095663;28;19924;-76
2021/08/12 10:16:41;;;;;;;;;;;17.90;99.90;;;;;;5095488;28;19934;-76
2021/08/12 10:19:11;;;;;;;;;;;17.90;99.90;;;;;;5090452;28;20374;-76
2021/08/12 10:21:42;;;;;;;;;;;17.90;99.90;;;;;;5095496;28;20032;-76
2021/08/12 10:24:11;;;;;;;;;;;17.90;99.90;;;;;;5095522;28;19924;-76
2021/08/12 10:26:41;;;;;;;;;;;17.90;99.90;;;;;;5095115;28;19932;-76
2021/08/12 10:29:10;;;;;;;;;;;17.90;99.90;;;;;;5095233;28;20346;-76
2021/08/12 10:31:36;;;;;;;;;;;17.90;99.90;;;;;;5095301;28;19924;-76
2021/08/12 10:34:04;;;;;;;;;;;17.90;99.90;;;;;;5095008;28;19947;-76
2021/08/12 10:36:32;;;;;;;;;;;18.00;99.90;;;;;;5094620;28;20290;-76
2021/08/12 10:38:59;;;;;;;;;;;18.00;99.90;;;;;;5095194;28;19977;-76
2021/08/12 10:41:28;;;;;;;;;;;18.00;99.90;;;;;;5094878;28;20343;-76
2021/08/12 10:43:55;;;;;;;;;;;18.00;99.90;;;;;;5094855;28;20340;-76
2021/08/12 10:46:34;;;;;;;;;;;18.00;99.90;;;;;;5094875;28;20405;-75
2021/08/12 10:49:20;;;;;;;;;;;18.00;99.90;;;;;;5094633;28;19935;-76
2021/08/12 10:51:47;;;;;;;;;;;18.00;99.90;;;;;;5094939;28;20251;-76
2021/08/12 10:54:17;;;;;;;;;;;18.00;99.90;;;;;;5094860;28;19932;-76
2021/08/12 10:56:46;;;;;;;;;;;18.00;99.90;;;;;;5094930;28;19928;-75
2021/08/12 10:59:13;;;;;;;;;;;18.00;99.90;;;;;;5094952;28;19985;-76
2021/08/12 11:01:40;;;;;;;;;;;18.00;99.90;;;;;;5094896;28;19924;-76
2021/08/12 11:04:07;;;;;;;;;;;18.00;99.90;;;;;;5094747;28;19924;-76
2021/08/12 11:06:40;;;;;;;;;;;18.10;99.90;;;;;;5094850;28;19934;-76
2021/08/12 11:09:08;;;;;;;;;;;18.10;99.90;;;;;;5094824;28;19931;-76
2021/08/12 11:11:58;;;;;;;;;;;18.10;99.90;;;;;;5095040;28;19924;-76
2021/08/12 11:14:49;;;;;;;;;;;18.20;99.90;;;;;;5094710;28;20356;-76
2021/08/12 11:17:16;;;;;;;;;;;18.20;99.90;;;;;;5094522;28;20387;-76
2021/08/12 11:19:44;;;;;;;;;;;18.10;99.90;;;;;;5094581;28;19924;-76
2021/08/12 11:22:30;;;;;;;;;;;18.20;99.90;;;;;;5094721;28;20271;-76
2021/08/12 11:24:56;;;;;;;;;;;18.20;99.90;;;;;;5094636;28;19924;-76
2021/08/12 11:27:50;;;;;;;;;;;18.20;99.90;;;;;;5094628;28;19924;-76
2021/08/12 11:30:49;;;;;;;;;;;18.30;99.90;;;;;;5032743;28;20293;-76
2021/08/12 11:33:30;;;;;;;;;;;18.30;99.90;;;;;;5032587;28;19929;-75
2021/08/12 11:36:09;;;;;;;;;;;18.40;99.90;;;;;;5032346;28;19925;-76
2021/08/12 11:38:36;;;;;;;;;;;18.50;99.90;;;;;;5033158;28;19951;-76
2021/08/12 11:41:03;;;;;;;;;;;18.60;99.90;;;;;;5032852;28;20024;-76
2021/08/12 11:43:30;;;;;;;;;;;18.60;99.90;;;;;;5032692;28;19936;-76
2021/08/12 11:45:57;;;;;;;;;;;18.70;99.90;;;;;;5033279;28;20266;-76
2021/08/12 11:48:24;;;;;;;;;;;18.70;99.90;;;;;;5036378;28;19925;-76
2021/08/12 11:50:53;;;;;;;;;;;18.70;99.90;;;;;;5036195;28;19939;-76
2021/08/12 11:53:36;;;;;;;;;;;18.80;99.90;;;;;;5036223;28;19929;-75
2021/08/12 11:56:08;;;;;;;;;;;18.80;99.90;;;;;;5036256;28;19925;-76
2021/08/12 11:58:36;;;;;;;;;;;18.90;99.90;;;;;;5048548;28;19987;-75
2021/08/12 12:01:13;;;;;;;;;;;18.90;99.90;;;;;;5056018;28;19983;-75
2021/08/12 12:03:40;;;;;;;;;;;18.90;99.90;;;;;;5055904;28;19924;-76
2021/08/12 12:06:10;;;;;;;;;;;18.90;99.90;;;;;;5078083;28;19924;-76
2021/08/12 12:08:38;;;;;;;;;;;18.90;99.90;;;;;;5097997;28;19924;-76
2021/08/12 12:11:11;;;;;;;;;;;18.90;99.90;;;;;;5097858;28;19924;-76
2021/08/12 12:13:38;;;;;;;;;;;18.90;99.90;;;;;;5097903;28;19924;-76
2021/08/12 12:16:08;;;;;;;;;;;18.90;99.90;;;;;;5097888;28;19923;-76
2021/08/12 12:18:36;;;;;;;;;;;18.90;99.90;;;;;;5097047;28;20019;-75
2021/08/12 12:21:02;;;;;;;;;;;18.90;99.90;;;;;;5097693;28;20253;-76
2021/08/12 12:23:31;;;;;;;;;;;18.90;99.90;;;;;;5097703;28;19924;-75
2021/08/12 12:25:57;;;;;;;;;;;19.00;99.90;;;;;;5097502;28;19936;-75
2021/08/12 12:28:26;;;;;;;;;;;19.10;99.90;;;;;;5097176;28;19924;-76
2021/08/12 12:30:54;;;;;;;;;;;19.10;99.90;;;;;;5097375;28;19971;-75
2021/08/12 12:33:24;;;;;;;;;;;19.10;99.90;;;;;;5095986;28;19928;-76
2021/08/12 12:35:54;;;;;;;;;;;19.10;99.90;;;;;;5097268;28;20244;-76
2021/08/12 12:38:24;;;;;;;;;;;19.10;99.90;;;;;;5097334;28;19981;-76
2021/08/12 12:40:56;;;;;;;;;;;19.10;99.90;;;;;;5097356;28;19924;-75
2021/08/12 12:43:27;;;;;;;;;;;19.20;99.90;;;;;;5097069;28;20268;-75
2021/08/12 12:45:56;;;;;;;;;;;19.20;99.90;;;;;;5097060;28;19934;-76
2021/08/12 12:48:27;;;;;;;;;;;19.30;99.90;;;;;;5096799;28;19931;-75
2021/08/12 12:50:55;;;;;;;;;;;19.40;99.90;;;;;;5096944;28;20247;-75
2021/08/12 12:53:30;;;;;;;;;;;19.40;99.90;;;;;;5096982;28;19950;-75
2021/08/12 12:56:00;;;;;;;;;;;19.50;99.90;;;;;;5097169;28;20259;-76
2021/08/12 12:58:28;;;;;;;;;;;19.50;99.90;;;;;;5095975;28;20259;-76
2021/08/12 13:00:59;;;;;;;;;;;19.40;99.90;;;;;;5096245;28;20360;-75
2021/08/12 13:03:37;;;;;;;;;;;19.30;99.90;;;;;;5096675;28;19939;-76
2021/08/12 13:06:04;;;;;;;;;;;19.30;99.90;;;;;;5096668;28;19971;-75
2021/08/12 13:08:35;;;;;;;;;;;19.30;99.90;;;;;;5096712;28;19950;-75
2021/08/12 13:11:10;;;;;;;;;;;19.30;99.90;;;;;;5095877;28;19974;-76
2021/08/12 13:13:37;;;;;;;;;;;19.30;99.90;;;;;;5096332;28;20014;-76
2021/08/12 13:16:04;;;;;;;;;;;19.40;99.90;;;;;;5095790;28;20256;-76
2021/08/12 13:18:50;;;;;;;;;;;19.40;99.90;;;;;;5096220;28;20351;-76
2021/08/12 13:21:26;;;;;;;;;;;19.40;99.90;;;;;;5096335;28;20359;-76
2021/08/12 13:23:53;;;;;;;;;;;19.40;99.90;;;;;;5095849;28;20363;-75
2021/08/12 13:26:27;;;;;;;;;;;19.40;99.90;;;;;;5096063;28;19939;-75
2021/08/12 13:29:02;;;;;;;;;;;19.40;99.90;;;;;;5096028;28;19989;-75
2021/08/12 13:31:35;;;;;;;;;;;19.40;99.90;;;;;;5096141;28;20346;-76
2021/08/12 13:34:01;;;;;;;;;;;19.40;99.90;;;;;;5096309;28;19972;-76
2021/08/12 13:36:28;;;;;;;;;;;19.40;99.90;;;;;;5096247;28;19924;-76
2021/08/12 13:38:55;;;;;;;;;;;19.50;99.90;;;;;;5096013;28;20011;-76
2021/08/12 13:41:22;;;;;;;;;;;19.50;99.90;;;;;;5095787;28;19934;-76
2021/08/12 13:43:50;;;;;;;;;;;19.50;99.90;;;;;;5095867;28;19934;-76
2021/08/12 13:46:17;;;;;;;;;;;19.50;99.90;;;;;;5095768;28;20263;-76
2021/08/12 13:48:44;;;;;;;;;;;19.60;99.90;;;;;;5096024;28;19924;-76
2021/08/12 13:51:11;;;;;;;;;;;19.70;99.90;;;;;;5095917;28;19949;-76
2021/08/12 13:53:38;;;;;;;;;;;19.70;99.90;;;;;;5095803;28;20030;-76
2021/08/12 13:56:05;;;;;;;;;;;19.80;99.90;;;;;;5095740;28;20371;-76
2021/08/12 13:58:32;;;;;;;;;;;19.80;99.90;;;;;;5095680;28;20003;-76
2021/08/12 14:01:00;;;;;;;;;;;19.80;99.90;;;;;;5095826;28;19924;-76
2021/08/12 14:03:27;;;;;;;;;;;19.70;99.90;;;;;;5095840;28;19928;-76
2021/08/12 14:05:54;;;;;;;;;;;19.70;99.90;;;;;;5095636;28;19924;-76
2021/08/12 14:08:21;;;;;;;;;;;19.70;99.90;;;;;;5095564;28;19924;-76
2021/08/12 14:10:47;;;;;;;;;;;19.70;99.90;;;;;;5095358;28;20264;-76
2021/08/12 14:13:14;;;;;;;;;;;19.70;99.90;;;;;;5095734;28;20015;-76
2021/08/12 14:15:42;;;;;;;;;;;19.70;99.90;;;;;;5095416;28;20003;-76